createdAt,value
2022-10-28T00:03:07.933Z,3.65
2022-10-28T00:08:09.843Z,2.70
2022-10-28T00:13:11.368Z,2.97
2022-10-28T00:18:15.651Z,4.32
2022-10-28T00:23:17.102Z,4.53
2022-10-28T00:28:18.533Z,4.28
2022-10-28T00:33:19.974Z,4.50
2022-10-28T00:38:21.445Z,3.40
2022-10-28T00:43:43.356Z,3.08
2022-10-28T00:48:50.735Z,3.22
2022-10-28T00:53:53.654Z,2.80
2022-10-28T00:58:59.570Z,2.85
2022-10-28T04:36:17.279Z,2.83
2022-10-28T04:41:18.831Z,3.72
2022-10-28T04:46:20.356Z,4.28
2022-10-28T04:51:21.843Z,3.30
2022-10-28T04:56:23.306Z,3.88
2022-10-28T05:01:24.933Z,3.70
2022-10-28T05:06:26.596Z,3.38
2022-10-28T05:11:28.216Z,2.55
2022-10-28T05:16:29.673Z,3.42
2022-10-28T05:21:31.196Z,3.17
2022-10-28T05:26:32.660Z,2.65
2022-10-28T05:31:34.718Z,4.15
2022-10-28T05:36:36.347Z,2.88
2022-10-28T05:41:38.869Z,2.92
2022-10-28T05:46:40.472Z,2.47
2022-10-28T05:51:41.942Z,4.68
2022-10-28T05:56:43.430Z,5.40
2022-10-28T06:01:45.009Z,4.55
2022-10-28T06:06:46.597Z,4.35
2022-10-28T06:11:46.740Z,3.80
2022-10-28T06:16:48.240Z,3.10
2022-10-28T06:21:49.695Z,5.63
2022-10-28T06:26:51.196Z,4.13
2022-10-28T06:31:52.682Z,3.72
2022-10-28T06:36:54.100Z,4.30
2022-10-28T06:41:55.591Z,4.43
2022-10-28T06:46:58.607Z,2.92
2022-10-28T06:52:00.096Z,3.65
2022-10-28T06:57:01.913Z,4.00
2022-10-28T07:02:03.917Z,4.50
2022-10-28T07:07:05.623Z,3.95
2022-10-28T07:12:07.757Z,3.22
2022-10-28T07:17:09.247Z,3.53
2022-10-28T07:22:10.728Z,3.42
2022-10-28T07:27:12.953Z,3.28
2022-10-28T07:32:15.394Z,3.95
2022-10-28T07:37:16.914Z,3.70
2022-10-28T07:42:18.440Z,3.70
2022-10-28T07:47:21.617Z,3.55
2022-10-28T07:52:23.372Z,3.47
2022-10-28T07:57:24.999Z,4.05
2022-10-28T08:02:26.813Z,4.07
2022-10-28T08:07:28.946Z,3.67
2022-10-28T08:12:30.805Z,3.25
2022-10-28T08:17:32.265Z,3.78
2022-10-28T08:22:33.740Z,3.55
2022-10-28T08:27:35.277Z,4.30
2022-10-28T08:32:36.744Z,3.55
2022-10-28T08:37:38.200Z,3.67
2022-10-28T08:42:56.444Z,3.97
2022-10-28T08:47:58.343Z,4.57
2022-10-28T08:53:10.468Z,3.95
2022-10-28T08:58:17.980Z,4.47
2022-10-28T09:03:23.115Z,3.08
2022-10-28T09:08:29.696Z,3.47
2022-10-28T09:13:52.876Z,3.63
2022-10-28T09:18:57.053Z,2.72
2022-10-28T09:24:05.982Z,3.20
2022-10-28T09:29:10.257Z,2.97
2022-10-28T09:34:24.037Z,2.63
2022-10-28T09:39:34.255Z,2.33
2022-10-28T09:44:43.446Z,3.22
2022-10-28T09:49:47.465Z,2.83
2022-10-28T09:54:52.233Z,2.50
2022-10-28T09:59:54.037Z,2.40
2022-10-28T10:04:57.965Z,3.42
2022-10-28T10:15:28.852Z,3.65
2022-10-28T10:20:47.483Z,2.80
2022-10-28T10:25:55.390Z,3.78
2022-10-28T10:30:59.824Z,3.17
2022-10-28T10:36:10.577Z,3.13
2022-10-28T10:41:12.084Z,3.30
2022-10-28T10:46:22.907Z,2.75
2022-10-28T10:51:27.379Z,3.20
2022-10-28T10:56:32.933Z,2.78
2022-10-28T11:01:39.129Z,2.03
2022-10-28T11:06:43.654Z,2.75
2022-10-28T11:11:45.324Z,2.25
2022-10-28T11:16:57.837Z,2.53
2022-10-28T11:22:47.913Z,2.60
2022-10-28T11:28:19.571Z,2.35
2022-10-28T11:33:30.483Z,2.63
2022-10-28T11:38:32.397Z,2.38
2022-10-28T11:43:55.019Z,2.25
2022-10-28T11:49:25.586Z,2.30
2022-10-28T11:54:54.048Z,2.20
2022-10-28T12:00:14.888Z,2.47
2022-10-28T12:05:33.040Z,2.40
2022-10-28T12:10:34.491Z,1.98
2022-10-28T12:15:58.183Z,1.83
2022-10-28T12:21:05.923Z,2.60
2022-10-28T12:26:11.525Z,2.05
2022-10-28T12:31:25.443Z,4.72
2022-10-28T12:36:29.792Z,2.58
2022-10-28T12:41:43.383Z,3.00
2022-10-28T12:47:06.852Z,2.88
2022-10-28T12:52:19.870Z,2.28
2022-10-28T12:57:24.961Z,2.47
2022-10-28T13:02:39.748Z,2.08
2022-10-28T13:07:58.640Z,2.97
2022-10-28T13:13:22.017Z,2.47
2022-10-28T13:18:40.853Z,2.50
2022-10-28T13:24:21.092Z,2.78
2022-10-28T13:29:26.981Z,3.22
2022-10-28T13:34:36.013Z,2.45
2022-10-28T13:39:37.442Z,2.30
2022-10-28T13:44:55.707Z,2.95
2022-10-28T13:50:06.641Z,2.83
2022-10-28T13:55:13.981Z,3.10
2022-10-28T14:00:18.519Z,3.08
2022-10-28T14:05:25.634Z,2.47
2022-10-28T14:10:32.708Z,2.90
2022-10-28T14:15:37.192Z,3.22
2022-10-28T14:20:43.023Z,2.72
2022-10-28T14:25:44.587Z,2.90
2022-10-28T14:31:09.077Z,3.28
2022-10-28T14:36:19.615Z,2.75
2022-10-28T14:41:47.731Z,2.00
2022-10-28T14:47:26.784Z,3.30
2022-10-28T14:52:31.323Z,3.20
2022-10-28T14:57:34.572Z,2.78
2022-10-28T15:02:38.019Z,3.45
2022-10-28T15:07:41.165Z,2.92
2022-10-28T15:12:45.623Z,2.70
2022-10-28T15:17:47.125Z,3.03
2022-10-28T15:22:48.707Z,3.30
2022-10-28T15:27:54.108Z,3.00
2022-10-28T15:33:20.177Z,3.42
2022-10-28T15:38:30.978Z,3.10
2022-10-28T15:43:32.586Z,2.85
2022-10-28T15:48:34.132Z,4.22
2022-10-28T15:53:40.563Z,3.50
2022-10-28T15:58:44.102Z,2.90
2022-10-28T16:03:47.456Z,4.25
2022-10-28T16:08:59.673Z,4.05
2022-10-28T16:14:14.920Z,5.68
2022-10-28T16:19:41.233Z,3.78
2022-10-28T16:24:42.738Z,3.88
2022-10-28T16:29:44.559Z,4.20
2022-10-28T16:34:46.105Z,5.80
2022-10-28T16:39:48.421Z,4.05
2022-10-28T16:44:50.274Z,4.22
2022-10-28T16:49:54.513Z,4.60
2022-10-28T16:54:59.767Z,5.03
2022-10-28T17:00:01.846Z,4.70
2022-10-28T17:05:07.430Z,3.55
2022-10-28T17:10:09.935Z,3.35
2022-10-28T17:15:11.421Z,4.97
2022-10-28T17:20:12.923Z,9.02
2022-10-28T17:25:14.720Z,5.63
2022-10-28T17:30:17.585Z,6.75
2022-10-28T17:35:20.943Z,6.50
2022-10-28T17:40:22.502Z,6.28
2022-10-28T17:45:24.017Z,6.15
2022-10-28T17:50:25.528Z,5.93
2022-10-28T17:55:27.032Z,6.38
2022-10-28T18:00:28.489Z,7.60
2022-10-28T18:05:29.956Z,6.75
2022-10-28T18:10:31.431Z,7.82
2022-10-28T18:15:36.763Z,6.53
2022-10-28T18:20:38.358Z,4.68
2022-10-28T18:25:39.879Z,4.45
2022-10-28T18:30:41.346Z,5.53
2022-10-28T18:35:42.834Z,5.13
2022-10-28T18:40:47.214Z,5.47
2022-10-28T18:45:48.787Z,7.78
2022-10-28T18:51:01.873Z,8.02
2022-10-28T18:56:06.193Z,9.48
2022-10-28T19:01:20.157Z,8.90
2022-10-28T19:06:22.553Z,8.68
2022-10-28T19:11:29.887Z,7.68
2022-10-28T19:16:33.537Z,6.70
2022-10-28T19:21:38.350Z,6.13
2022-10-28T19:26:39.844Z,4.95
2022-10-28T19:31:41.939Z,4.78
2022-10-28T19:36:43.533Z,5.03
2022-10-28T19:41:45.142Z,4.95
2022-10-28T19:46:46.616Z,4.90
2022-10-28T19:51:48.052Z,5.32
2022-10-28T19:56:50.394Z,5.70
2022-10-28T20:01:52.003Z,5.18
2022-10-28T20:06:53.585Z,6.25
2022-10-28T20:11:55.228Z,7.68
2022-10-28T20:16:56.704Z,7.15
2022-10-28T20:21:58.312Z,6.45
2022-10-28T20:26:59.755Z,5.90
2022-10-28T20:32:01.895Z,8.40
2022-10-28T20:37:03.484Z,6.28
2022-10-28T20:42:04.997Z,6.90
2022-10-28T20:47:06.557Z,5.97
2022-10-28T20:52:08.091Z,5.88
2022-10-28T20:57:09.533Z,5.93
2022-10-28T21:02:11.161Z,6.45
2022-10-28T21:07:12.769Z,6.40
2022-10-28T21:12:14.214Z,5.55
2022-10-28T21:17:15.683Z,5.10
2022-10-28T21:22:18.522Z,5.72
2022-10-28T21:27:19.992Z,5.47
2022-10-28T21:32:21.459Z,6.47
2022-10-28T21:37:22.960Z,5.32
2022-10-28T21:42:24.483Z,4.80
2022-10-28T21:47:27.401Z,6.60
2022-10-28T21:52:28.856Z,5.72
2022-10-28T21:57:30.755Z,6.25
2022-10-28T22:02:32.375Z,5.30
2022-10-28T22:07:34.020Z,4.22
2022-10-28T22:12:35.470Z,5.25
2022-10-28T22:17:37.260Z,4.40
2022-10-28T22:22:38.738Z,3.85
2022-10-28T22:27:40.285Z,4.47
2022-10-28T22:32:41.750Z,4.45
2022-10-28T22:37:43.215Z,5.82
2022-10-28T22:42:44.662Z,6.25
2022-10-28T22:47:46.125Z,4.95
2022-10-28T22:52:47.570Z,4.90
2022-10-28T22:57:49.005Z,4.13
2022-10-28T23:02:50.521Z,3.97
2022-10-28T23:07:55.457Z,4.53
2022-10-28T23:12:58.492Z,4.20
2022-10-28T23:18:00.022Z,4.43
2022-10-28T23:23:01.771Z,5.13
2022-10-28T23:28:06.809Z,4.93
2022-10-28T23:33:08.277Z,5.35
2022-10-28T23:38:11.770Z,4.05
2022-10-28T23:43:13.194Z,5.13
2022-10-28T23:48:14.646Z,4.07
2022-10-28T23:53:16.612Z,6.05
2022-10-28T23:58:20.161Z,4.15
